Ashland, Wisconsin
Current Conditions -  °F | °C
As of 3:53 PM on Wednesday 28 Jan 2015 (Local Time) from KASX Reporting Station
Clear Clear  
Wind Chill: 27°   Ceiling: Unl
Heat Index: 33°   Visibility: 8mi
Dew Point: 23°   Wind: 7mph
Humidity: 66%   Direction: 170°S
Pressure: 29.84"   Gusts: NA
Location:  46.59°N, 90.89°W
Report Text: KASX 282153Z AUTO 17006KT 8SM CLR 01/M05 A2984 RMK AO2 SLP117 T00061050
Loading
Personal Weather Stations






























Interactive Weather Map New forecast layout! Learn more

10-Day Weather Forecast

Advertisements
Track Severe Weather on mobile